createdAt,value
2023-03-18T00:00:19.223Z,4.83
2023-03-18T00:05:18.444Z,5.70
2023-03-18T00:10:18.960Z,5.80
2023-03-18T00:15:18.422Z,4.63
2023-03-18T00:20:18.537Z,5.90
2023-03-18T00:25:18.185Z,5.50
2023-03-18T00:30:16.577Z,6.00
2023-03-18T00:35:15.086Z,5.90
2023-03-18T00:40:17.536Z,5.03
2023-03-18T00:45:18.771Z,5.53
2023-03-18T00:50:17.420Z,5.07
2023-03-18T00:55:15.853Z,5.67
2023-03-18T01:00:17.171Z,5.70
2023-03-18T01:05:17.596Z,5.87
2023-03-18T01:10:16.378Z,5.10
2023-03-18T01:15:17.188Z,6.30
2023-03-18T01:20:19.608Z,5.50
2023-03-18T01:25:22.121Z,5.10
2023-03-18T01:30:24.808Z,4.97
2023-03-18T01:35:27.236Z,4.90
2023-03-18T01:40:26.177Z,4.80
2023-03-18T01:45:29.695Z,5.63
2023-03-18T01:50:34.632Z,4.47
2023-03-18T01:55:37.186Z,5.23
2023-03-18T02:00:37.266Z,4.80
2023-03-18T02:05:38.539Z,4.90
2023-03-18T02:10:38.602Z,5.00
2023-03-18T02:15:43.145Z,4.87
2023-03-18T02:21:07.452Z,5.23
2023-03-18T02:26:14.416Z,4.80
2023-03-18T02:31:16.725Z,4.80
2023-03-18T02:36:19.997Z,5.07
2023-03-18T02:41:20.784Z,4.70
2023-03-18T02:46:30.902Z,4.83
2023-03-18T02:51:30.312Z,5.53
2023-03-18T02:56:28.799Z,4.43
2023-03-18T03:01:28.723Z,5.80
2023-03-18T03:06:27.543Z,4.50
2023-03-18T03:11:26.489Z,4.70
2023-03-18T03:16:30.016Z,4.80
2023-03-18T03:21:29.375Z,5.53
2023-03-18T03:26:27.652Z,4.83
2023-03-18T03:31:26.822Z,5.40
2023-03-18T03:36:26.707Z,5.23
2023-03-18T03:41:27.697Z,4.37
2023-03-18T03:46:26.573Z,5.17
2023-03-18T03:51:26.603Z,4.73
2023-03-18T03:56:24.910Z,5.07
2023-03-18T04:01:23.245Z,4.80
2023-03-18T04:06:21.629Z,4.10
2023-03-18T04:11:30.990Z,5.00
2023-03-18T04:16:29.305Z,4.70
2023-03-18T04:21:27.942Z,4.20
2023-03-18T04:26:28.568Z,4.03
2023-03-18T04:31:32.091Z,5.27
2023-03-18T04:36:31.074Z,5.20
2023-03-18T04:41:29.404Z,4.37
2023-03-18T04:46:32.794Z,5.27
2023-03-18T04:51:31.353Z,4.50
2023-03-18T04:56:29.657Z,4.70
2023-03-18T05:01:29.826Z,5.23
2023-03-18T05:06:31.769Z,4.70
2023-03-18T05:11:36.170Z,4.50
2023-03-18T05:16:52.796Z,5.80
2023-03-18T05:21:53.084Z,5.10
2023-03-18T05:26:51.646Z,5.47
2023-03-18T05:31:54.600Z,4.73
2023-03-18T05:36:54.984Z,5.20
2023-03-18T05:41:53.765Z,5.20
2023-03-18T05:46:57.162Z,5.07
2023-03-18T05:52:25.827Z,5.70
2023-03-18T05:57:28.469Z,5.20
2023-03-18T06:02:33.499Z,5.17
2023-03-18T06:07:33.145Z,5.50
2023-03-18T06:12:31.542Z,4.93
2023-03-18T06:17:29.950Z,5.30
2023-03-18T06:22:28.545Z,4.40
2023-03-18T06:27:28.522Z,5.33
2023-03-18T06:32:30.208Z,5.17
2023-03-18T06:37:29.356Z,5.13
2023-03-18T06:42:29.140Z,4.90
2023-03-18T06:47:36.906Z,4.97
2023-03-18T06:52:36.037Z,5.20
2023-03-18T06:57:43.280Z,5.00
2023-03-18T07:02:43.460Z,5.53
2023-03-18T07:07:46.282Z,5.13
2023-03-18T07:12:47.556Z,5.37
2023-03-18T07:17:46.013Z,5.60
2023-03-18T07:22:45.236Z,5.50
2023-03-18T07:27:45.696Z,5.03
2023-03-18T07:32:46.028Z,5.37
2023-03-18T07:37:45.078Z,6.47
2023-03-18T07:42:43.564Z,6.30
2023-03-18T07:47:44.269Z,5.17
2023-03-18T07:52:44.764Z,5.00
2023-03-18T07:57:43.400Z,5.13
2023-03-18T08:02:43.145Z,6.17
2023-03-18T08:07:41.365Z,5.90
2023-03-18T08:12:51.999Z,5.10
2023-03-18T08:17:53.924Z,5.43
2023-03-18T08:22:52.286Z,5.50
2023-03-18T08:27:50.975Z,5.00
2023-03-18T08:32:49.203Z,5.90
2023-03-18T08:37:49.034Z,5.30
2023-03-18T08:42:47.514Z,5.03
2023-03-18T08:47:45.717Z,5.50
2023-03-18T08:52:43.938Z,5.13
2023-03-18T08:57:43.618Z,4.63
2023-03-18T09:02:41.919Z,5.00
2023-03-18T09:07:40.482Z,5.13
2023-03-18T09:12:38.717Z,5.20
2023-03-18T09:17:56.517Z,5.53
2023-03-18T09:22:59.477Z,5.30
2023-03-18T09:27:57.709Z,4.40
2023-03-18T09:32:57.726Z,4.60
2023-03-18T09:37:56.341Z,5.17
2023-03-18T09:43:02.661Z,4.83
2023-03-18T09:48:23.518Z,4.40
2023-03-18T09:53:25.277Z,4.87
2023-03-18T09:58:28.763Z,4.83
2023-03-18T10:03:35.809Z,4.60
2023-03-18T10:08:48.209Z,4.33
2023-03-18T10:13:55.010Z,5.00
2023-03-18T10:18:55.078Z,4.67
2023-03-18T10:23:59.803Z,4.63
2023-03-18T10:29:14.210Z,4.43
2023-03-18T10:34:17.777Z,4.20
2023-03-18T10:39:18.063Z,4.27
2023-03-18T10:44:21.307Z,4.40
2023-03-18T10:49:26.208Z,4.90
2023-03-18T10:54:28.487Z,3.90
2023-03-18T10:59:27.969Z,4.30
2023-03-18T11:04:30.678Z,3.87
2023-03-18T11:09:33.173Z,4.40
2023-03-18T11:14:33.104Z,5.03
2023-03-18T11:19:39.516Z,4.67
2023-03-18T11:24:42.592Z,4.97
2023-03-18T11:29:45.598Z,3.70
2023-03-18T11:34:55.822Z,4.00
2023-03-18T11:39:58.983Z,4.27
2023-03-18T11:45:05.293Z,3.70
2023-03-18T11:50:06.465Z,3.90
2023-03-18T11:55:15.852Z,3.90
2023-03-18T12:00:28.270Z,4.53
2023-03-18T12:05:41.881Z,3.53
2023-03-18T12:10:48.350Z,4.00
2023-03-18T12:15:53.621Z,4.00
2023-03-18T12:20:55.024Z,3.57
2023-03-18T12:26:03.346Z,3.77
2023-03-18T12:31:15.729Z,4.53
2023-03-18T12:36:23.822Z,4.27
2023-03-18T12:41:36.032Z,3.50
2023-03-18T12:46:40.566Z,4.60
2023-03-18T12:51:45.986Z,4.13
2023-03-18T12:56:51.134Z,3.70
2023-03-18T13:01:59.687Z,4.07
2023-03-18T13:07:07.044Z,3.93
2023-03-18T13:12:11.717Z,3.90
2023-03-18T13:17:13.964Z,4.90
2023-03-18T13:22:29.883Z,4.63
2023-03-18T13:27:43.027Z,3.97
2023-03-18T13:33:09.567Z,4.23
2023-03-18T13:38:33.648Z,5.23
2023-03-18T13:43:34.776Z,4.77
2023-03-18T13:48:35.296Z,4.70
2023-03-18T13:53:39.503Z,4.83
2023-03-18T13:58:47.728Z,4.83
2023-03-18T14:04:03.230Z,4.17
2023-03-18T14:09:23.644Z,4.70
2023-03-18T14:14:56.736Z,4.33
2023-03-18T14:19:56.993Z,3.73
2023-03-18T14:25:35.366Z,3.70
2023-03-18T14:30:48.309Z,4.13
2023-03-18T14:35:50.487Z,3.80
2023-03-18T14:40:53.836Z,4.50
2023-03-18T14:45:53.601Z,3.07
2023-03-18T14:50:53.469Z,3.50
2023-03-18T14:55:56.558Z,2.70
2023-03-18T15:00:58.841Z,2.23
2023-03-18T15:11:23.822Z,3.13
2023-03-18T15:16:25.415Z,3.10
2023-03-18T15:21:27.602Z,2.40
2023-03-18T15:26:31.910Z,2.43
2023-03-18T15:31:32.451Z,2.40
2023-03-18T15:36:30.720Z,2.77
2023-03-18T15:41:32.208Z,2.50
2023-03-18T15:46:31.847Z,2.70
2023-03-18T15:51:32.123Z,2.83
2023-03-18T15:56:34.084Z,2.63
2023-03-18T16:01:40.000Z,2.80
2023-03-18T16:06:38.736Z,2.67
2023-03-18T16:11:38.416Z,2.73
2023-03-18T16:16:36.899Z,2.10
2023-03-18T16:21:35.672Z,2.27
2023-03-18T16:26:34.009Z,2.70
2023-03-18T16:31:33.625Z,2.53
2023-03-18T16:36:35.215Z,3.30
2023-03-18T16:41:33.455Z,2.47
2023-03-18T16:46:33.172Z,3.07
2023-03-18T16:51:32.211Z,2.10
2023-03-18T16:56:30.445Z,2.80
2023-03-18T17:01:28.713Z,2.57
2023-03-18T17:06:28.332Z,2.77
2023-03-18T17:11:27.469Z,3.60
2023-03-18T17:16:27.895Z,3.80
2023-03-18T17:21:29.283Z,3.60
2023-03-18T17:26:29.835Z,4.77
2023-03-18T17:31:28.133Z,4.53
2023-03-18T17:36:27.946Z,4.03
2023-03-18T17:41:26.222Z,3.60
2023-03-18T17:46:24.541Z,3.73
2023-03-18T17:51:24.907Z,4.03
2023-03-18T17:56:24.674Z,3.97
2023-03-18T18:01:26.587Z,4.10
2023-03-18T18:06:27.278Z,4.70
2023-03-18T18:11:28.987Z,4.70
2023-03-18T18:16:27.309Z,4.20
2023-03-18T18:21:27.213Z,4.27
2023-03-18T18:26:26.835Z,4.30
2023-03-18T18:31:25.628Z,4.60
2023-03-18T18:36:28.148Z,4.60
2023-03-18T18:41:28.386Z,5.17
2023-03-18T18:46:28.088Z,5.67
2023-03-18T18:51:26.795Z,4.50
2023-03-18T18:56:34.299Z,4.03
2023-03-18T19:01:32.874Z,5.00
2023-03-18T19:06:32.818Z,5.47
2023-03-18T19:11:33.553Z,6.03
2023-03-18T19:16:34.545Z,5.00
2023-03-18T19:21:32.866Z,4.43
2023-03-18T19:26:32.497Z,4.70
2023-03-18T19:31:35.416Z,5.70
2023-03-18T19:36:39.642Z,4.63
2023-03-18T19:41:39.230Z,5.80
2023-03-18T19:46:39.674Z,6.53
2023-03-18T19:51:37.898Z,5.97
2023-03-18T19:56:36.147Z,6.50
2023-03-18T20:01:36.024Z,5.90
2023-03-18T20:06:34.287Z,5.00
2023-03-18T20:11:32.524Z,7.80
2023-03-18T20:16:30.789Z,7.53
2023-03-18T20:21:32.445Z,8.50
2023-03-18T20:26:30.719Z,7.47
2023-03-18T20:31:30.248Z,8.03
2023-03-18T20:36:28.510Z,7.60
2023-03-18T20:41:28.115Z,8.00
2023-03-18T20:46:26.441Z,8.80
2023-03-18T20:51:30.308Z,7.50
2023-03-18T20:56:32.983Z,6.97
2023-03-18T21:01:31.781Z,7.30
2023-03-18T21:06:30.208Z,7.90
2023-03-18T21:11:32.824Z,7.53
2023-03-18T21:16:32.245Z,7.17
2023-03-18T21:21:35.413Z,7.50
2023-03-18T21:26:35.083Z,6.93
2023-03-18T21:31:33.588Z,7.67
2023-03-18T21:36:32.341Z,7.30
2023-03-18T21:41:32.002Z,8.47
2023-03-18T21:46:32.187Z,8.47
2023-03-18T21:51:39.170Z,8.03
2023-03-18T21:56:38.455Z,8.70
2023-03-18T22:01:38.206Z,7.63
2023-03-18T22:06:36.318Z,7.70
2023-03-18T22:11:34.750Z,7.40
2023-03-18T22:16:33.197Z,7.07
2023-03-18T22:21:32.800Z,8.13
2023-03-18T22:26:31.027Z,7.73
2023-03-18T22:31:29.294Z,6.90
2023-03-18T22:36:29.166Z,6.90
2023-03-18T22:41:30.491Z,8.00
2023-03-18T22:46:30.105Z,7.60
2023-03-18T22:51:30.752Z,8.23
2023-03-18T22:56:32.288Z,7.83
2023-03-18T23:01:32.332Z,7.67
2023-03-18T23:06:30.673Z,7.30
2023-03-18T23:11:31.346Z,7.47
2023-03-18T23:16:29.606Z,8.53
2023-03-18T23:21:27.908Z,8.10
2023-03-18T23:26:26.305Z,7.87
2023-03-18T23:31:26.099Z,9.03
2023-03-18T23:36:24.350Z,8.70
2023-03-18T23:41:22.546Z,11.80
2023-03-18T23:46:20.811Z,9.20
2023-03-18T23:51:20.415Z,9.23
2023-03-18T23:56:18.717Z,10.40
